createdAt,value
2023-01-21T00:00:04.000Z,-4.94
2023-01-21T00:05:04.000Z,-4.97
2023-01-21T00:10:03.000Z,-5.02
2023-01-21T00:15:03.000Z,-5.01
2023-01-21T00:20:03.000Z,-5.10
2023-01-21T00:25:03.000Z,-5.15
2023-01-21T00:30:04.000Z,-5.11
2023-01-21T00:35:03.000Z,-5.18
2023-01-21T01:00:25.000Z,-5.49
2023-01-21T01:05:07.000Z,-5.26
2023-01-21T01:10:03.000Z,-5.59
2023-01-21T01:15:03.000Z,-5.46
2023-01-21T01:20:03.000Z,-5.48
2023-01-21T01:25:04.000Z,-5.55
2023-01-21T01:30:05.000Z,-5.43
2023-01-21T01:35:04.000Z,-5.50
2023-01-21T01:40:04.000Z,-5.70
2023-01-21T01:45:03.000Z,-5.87
2023-01-21T01:50:03.000Z,-5.93
2023-01-21T01:55:05.000Z,-5.69
2023-01-21T02:00:03.000Z,-5.92
2023-01-21T02:05:03.000Z,-5.91
2023-01-21T02:10:04.000Z,-5.91
2023-01-21T02:15:04.000Z,-5.78
2023-01-21T02:20:04.000Z,-5.78
2023-01-21T02:25:04.000Z,-5.84
2023-01-21T02:30:04.000Z,-6.02
2023-01-21T02:35:03.000Z,-6.22
2023-01-21T02:40:05.000Z,-6.14
2023-01-21T02:45:05.000Z,-6.17
2023-01-21T02:50:04.000Z,-6.14
2023-01-21T02:55:07.000Z,-5.88
2023-01-21T03:00:12.000Z,-5.83
2023-01-21T03:05:03.000Z,-6.16
2023-01-21T03:10:04.000Z,-6.12
2023-01-21T03:15:03.000Z,-6.06
2023-01-21T03:20:06.000Z,-5.96
2023-01-21T03:25:03.000Z,-6.03
2023-01-21T03:30:04.000Z,-6.01
2023-01-21T03:34:48.000Z,-6.17
2023-01-21T03:40:03.000Z,-6.03
2023-01-21T03:45:03.000Z,-6.12
2023-01-21T03:50:03.000Z,-6.08
2023-01-21T03:55:03.000Z,-6.16
2023-01-21T04:00:05.000Z,-6.06
2023-01-21T04:05:04.000Z,-6.15
2023-01-21T04:10:04.000Z,-6.20
2023-01-21T04:15:03.000Z,-6.34
2023-01-21T04:19:48.000Z,-6.16
2023-01-21T04:25:03.000Z,-6.14
2023-01-21T04:30:04.000Z,-6.08
2023-01-21T04:35:04.000Z,-6.02
2023-01-21T04:40:03.000Z,-6.03
2023-01-21T04:45:03.000Z,-6.00
2023-01-21T04:50:03.000Z,-6.03
2023-01-21T04:55:04.000Z,-6.04
2023-01-21T05:00:04.000Z,-6.16
2023-01-21T05:05:04.000Z,-6.16
2023-01-21T05:10:04.000Z,-6.23
2023-01-21T05:15:03.000Z,-6.24
2023-01-21T05:20:04.000Z,-6.26
2023-01-21T05:25:03.000Z,-6.32
2023-01-21T05:30:03.000Z,-6.38
2023-01-21T05:35:03.000Z,-6.39
2023-01-21T05:40:03.000Z,-6.43
2023-01-21T05:45:03.000Z,-6.33
2023-01-21T05:50:04.000Z,-6.31
2023-01-21T05:55:04.000Z,-6.27
2023-01-21T06:00:03.000Z,-6.32
2023-01-21T06:05:03.000Z,-6.32
2023-01-21T06:10:03.000Z,-6.32
2023-01-21T06:15:03.000Z,-6.34
2023-01-21T06:20:03.000Z,-6.37
2023-01-21T06:25:03.000Z,-6.42
2023-01-21T06:30:03.000Z,-6.47
2023-01-21T06:35:03.000Z,-6.47
2023-01-21T06:40:03.000Z,-6.43
2023-01-21T06:45:03.000Z,-6.44
2023-01-21T06:50:03.000Z,-6.43
2023-01-21T06:55:03.000Z,-6.49
2023-01-21T07:00:04.000Z,-6.43
2023-01-21T07:05:03.000Z,-6.56
2023-01-21T07:10:03.000Z,-6.51
2023-01-21T07:15:03.000Z,-6.44
2023-01-21T07:20:03.000Z,-6.34
2023-01-21T07:25:03.000Z,-6.41
2023-01-21T07:30:03.000Z,-6.16
2023-01-21T07:35:03.000Z,-6.04
2023-01-21T07:40:04.000Z,-5.92
2023-01-21T07:45:03.000Z,-5.93
2023-01-21T07:50:03.000Z,-5.85
2023-01-21T07:55:03.000Z,-5.74
2023-01-21T08:00:03.000Z,-5.67
2023-01-21T08:05:03.000Z,-5.71
2023-01-21T08:10:03.000Z,-5.50
2023-01-21T08:15:03.000Z,-5.47
2023-01-21T08:20:03.000Z,-5.53
2023-01-21T08:25:03.000Z,-5.30
2023-01-21T08:30:03.000Z,-5.25
2023-01-21T08:35:04.000Z,-5.12
2023-01-21T08:40:04.000Z,-4.94
2023-01-21T08:45:04.000Z,-4.82
2023-01-21T08:50:06.000Z,-4.71
2023-01-21T08:55:04.000Z,-4.66
2023-01-21T09:00:04.000Z,-4.65
2023-01-21T09:05:03.000Z,-4.44
2023-01-21T09:10:04.000Z,-4.36
2023-01-21T09:15:04.000Z,-4.00
2023-01-21T09:20:04.000Z,-4.07
2023-01-21T09:25:04.000Z,-3.89
2023-01-21T09:30:04.000Z,-3.60
2023-01-21T09:35:04.000Z,-3.22
2023-01-21T09:40:03.000Z,-3.00
2023-01-21T09:45:04.000Z,-2.72
2023-01-21T09:50:03.000Z,-2.78
2023-01-21T09:55:03.000Z,-2.62
2023-01-21T10:00:03.000Z,-2.45
2023-01-21T10:05:03.000Z,-2.09
2023-01-21T10:10:04.000Z,-1.87
2023-01-21T10:15:03.000Z,-1.65
2023-01-21T10:20:03.000Z,-1.48
2023-01-21T10:25:03.000Z,-1.30
2023-01-21T10:30:03.000Z,-1.08
2023-01-21T10:35:03.000Z,-0.93
2023-01-21T10:40:03.000Z,-0.90
2023-01-21T10:45:03.000Z,-0.71
2023-01-21T10:50:03.000Z,-0.83
2023-01-21T10:55:03.000Z,-0.51
2023-01-21T11:00:04.000Z,-0.45
2023-01-21T11:05:03.000Z,-0.31
2023-01-21T11:10:03.000Z,-0.20
2023-01-21T11:15:03.000Z,-0.10
2023-01-21T11:20:03.000Z,0.09
2023-01-21T11:25:03.000Z,0.24
2023-01-21T11:30:03.000Z,0.37
2023-01-21T11:35:03.000Z,0.45
2023-01-21T11:40:03.000Z,0.55
2023-01-21T11:45:03.000Z,0.66
2023-01-21T11:50:03.000Z,0.50
2023-01-21T11:55:03.000Z,0.62
2023-01-21T12:00:03.000Z,0.74
2023-01-21T12:05:03.000Z,0.81
2023-01-21T12:10:03.000Z,0.63
2023-01-21T12:15:03.000Z,1.01
2023-01-21T12:20:03.000Z,0.97
2023-01-21T12:25:03.000Z,0.99
2023-01-21T12:30:03.000Z,0.98
2023-01-21T12:35:03.000Z,1.04
2023-01-21T12:40:03.000Z,1.02
2023-01-21T12:45:03.000Z,1.17
2023-01-21T12:50:03.000Z,1.33
2023-01-21T12:55:03.000Z,1.24
2023-01-21T13:00:06.000Z,1.25
2023-01-21T13:05:03.000Z,1.19
2023-01-21T13:10:03.000Z,1.08
2023-01-21T13:15:04.000Z,1.11
2023-01-21T13:20:04.000Z,0.86
2023-01-21T13:25:04.000Z,1.07
2023-01-21T13:30:04.000Z,1.04
2023-01-21T13:35:04.000Z,1.10
2023-01-21T13:40:04.000Z,1.13
2023-01-21T13:45:04.000Z,1.05
2023-01-21T13:50:04.000Z,1.05
2023-01-21T13:55:03.000Z,1.04
2023-01-21T14:00:04.000Z,0.94
2023-01-21T14:05:03.000Z,0.86
2023-01-21T14:10:03.000Z,0.89
2023-01-21T14:15:04.000Z,0.78
2023-01-21T14:20:03.000Z,0.68
2023-01-21T14:25:04.000Z,0.51
2023-01-21T14:29:48.000Z,0.43
2023-01-21T14:35:04.000Z,0.30
2023-01-21T14:40:04.000Z,0.22
2023-01-21T14:45:03.000Z,0.17
2023-01-21T14:50:03.000Z,0.16
2023-01-21T14:55:04.000Z,0.18
2023-01-21T15:00:05.000Z,0.18
2023-01-21T15:05:03.000Z,-0.02
2023-01-21T15:10:03.000Z,-0.13
2023-01-21T15:15:04.000Z,-0.12
2023-01-21T15:20:03.000Z,-0.24
2023-01-21T15:25:03.000Z,-0.35
2023-01-21T15:30:03.000Z,-0.25
2023-01-21T15:35:03.000Z,-0.28
2023-01-21T15:40:05.000Z,-0.26
2023-01-21T15:45:03.000Z,-0.29
2023-01-21T15:50:04.000Z,-0.40
2023-01-21T15:55:04.000Z,-0.36
2023-01-21T16:00:04.000Z,-0.49
2023-01-21T16:05:04.000Z,-0.40
2023-01-21T16:10:04.000Z,-0.56
2023-01-21T16:15:04.000Z,-0.51
2023-01-21T16:20:04.000Z,-0.55
2023-01-21T16:25:04.000Z,-0.51
2023-01-21T16:30:04.000Z,-0.53
2023-01-21T16:35:04.000Z,-0.54
2023-01-21T16:40:03.000Z,-0.57
2023-01-21T16:45:04.000Z,-0.56
2023-01-21T16:50:04.000Z,-0.60
2023-01-21T16:55:05.000Z,-0.51
2023-01-21T17:00:04.000Z,-0.58
2023-01-21T17:05:04.000Z,-0.65
2023-01-21T17:10:04.000Z,-0.68
2023-01-21T17:15:04.000Z,-0.68
2023-01-21T17:20:04.000Z,-0.59
2023-01-21T17:25:04.000Z,-0.60
2023-01-21T17:30:04.000Z,-0.61
2023-01-21T17:35:04.000Z,-0.80
2023-01-21T17:40:04.000Z,-0.60
2023-01-21T17:45:04.000Z,-0.86
2023-01-21T17:50:04.000Z,-0.82
2023-01-21T17:55:04.000Z,-0.65
2023-01-21T18:00:04.000Z,-0.59
2023-01-21T18:05:04.000Z,-0.65
2023-01-21T18:10:04.000Z,-0.65
2023-01-21T18:15:04.000Z,-0.65
2023-01-21T18:20:04.000Z,-0.76
2023-01-21T18:25:04.000Z,-0.60
2023-01-21T18:30:04.000Z,-0.61
2023-01-21T18:35:04.000Z,-0.61
2023-01-21T18:40:04.000Z,-0.60
2023-01-21T18:45:04.000Z,-0.72
2023-01-21T18:50:04.000Z,-0.57
2023-01-21T18:55:04.000Z,-0.56
2023-01-21T19:00:05.000Z,-0.43
2023-01-21T19:05:04.000Z,-0.51
2023-01-21T19:10:04.000Z,-0.56
2023-01-21T19:15:04.000Z,-0.54
2023-01-21T19:20:04.000Z,-0.66
2023-01-21T19:25:04.000Z,-0.73
2023-01-21T19:30:04.000Z,-0.72
2023-01-21T19:35:04.000Z,-0.69
2023-01-21T19:40:04.000Z,-0.68
2023-01-21T19:45:04.000Z,-0.68
2023-01-21T19:50:04.000Z,-0.64
2023-01-21T19:55:04.000Z,-0.71
2023-01-21T20:00:04.000Z,-0.68
2023-01-21T20:05:04.000Z,-0.70
2023-01-21T20:15:04.000Z,-0.68
2023-01-21T20:20:04.000Z,-0.68
2023-01-21T20:25:04.000Z,-0.49
2023-01-21T20:30:04.000Z,-0.66
2023-01-21T20:35:04.000Z,-0.69
2023-01-21T20:40:04.000Z,-0.71
2023-01-21T20:45:04.000Z,-0.75
2023-01-21T20:50:04.000Z,-0.76
2023-01-21T20:55:04.000Z,-0.55
2023-01-21T21:00:05.000Z,-0.46
2023-01-21T21:05:04.000Z,-0.56
2023-01-21T21:10:04.000Z,-0.58
2023-01-21T21:15:04.000Z,-0.58
2023-01-21T21:20:04.000Z,-0.64
2023-01-21T21:25:04.000Z,-0.68
2023-01-21T21:30:04.000Z,-0.95
2023-01-21T21:35:04.000Z,-0.74
2023-01-21T21:40:04.000Z,-0.79
2023-01-21T21:45:04.000Z,-0.94
2023-01-21T21:50:04.000Z,-0.79
2023-01-21T21:55:04.000Z,-0.84
2023-01-21T22:00:04.000Z,-0.82
2023-01-21T22:05:04.000Z,-0.83
2023-01-21T22:10:04.000Z,-0.84
2023-01-21T22:15:04.000Z,-0.79
2023-01-21T22:20:04.000Z,-0.66
2023-01-21T22:25:04.000Z,-0.61
2023-01-21T22:30:04.000Z,-0.59
2023-01-21T22:35:04.000Z,-0.58
2023-01-21T22:40:04.000Z,-0.61
2023-01-21T22:45:04.000Z,-0.64
2023-01-21T22:50:04.000Z,-0.59
2023-01-21T22:55:04.000Z,-0.57
2023-01-21T22:59:49.000Z,-0.56
2023-01-21T23:04:54.000Z,-0.65
2023-01-21T23:09:51.000Z,-0.71
2023-01-21T23:15:08.000Z,-0.68
2023-01-21T23:20:07.000Z,-0.68
2023-01-21T23:25:06.000Z,-0.75
2023-01-21T23:30:09.000Z,-0.93
2023-01-21T23:35:08.000Z,-0.93
2023-01-21T23:40:06.000Z,-0.91
2023-01-21T23:45:08.000Z,-0.94
2023-01-21T23:50:06.000Z,-0.87
2023-01-21T23:55:05.000Z,-0.80
